← Previous May 28, 2024 4:33 AM

FTUS43 KARX 260520
TAFLSE
TAF
KLSE 260520Z 2606/2706 13006KT P6SM BKN120
     FM261300 11008KT 5SM -RA OVC035
     FM261600 10009KT 2SM -RA OVC010
     FM262300 34008KT P6SM BKN009
     FM270400 34008KT 6SM BR BKN013=